createdAt,value
2019-01-25T00:01:13.250Z,73.88
2019-01-25T00:03:46.041Z,74.11
2019-01-25T00:06:18.849Z,74.73
2019-01-25T00:08:51.479Z,72.88
2019-01-25T00:11:24.206Z,73.21
2019-01-25T00:13:56.935Z,73.21
2019-01-25T00:16:29.762Z,73.89
2019-01-25T00:19:02.421Z,74.24
2019-01-25T00:21:34.322Z,73.40
2019-01-25T00:24:07.679Z,73.50
2019-01-25T00:26:40.377Z,72.92
2019-01-25T00:29:13.174Z,73.69
2019-01-25T00:31:45.916Z,74.03
2019-01-25T00:34:18.690Z,73.83
2019-01-25T00:36:51.388Z,73.74
2019-01-25T00:39:24.097Z,74.30
2019-01-25T00:41:56.729Z,73.88
2019-01-25T00:44:29.443Z,73.94
2019-01-25T00:47:02.038Z,74.58
2019-01-25T00:49:34.950Z,74.92
2019-01-25T00:52:07.707Z,73.24
2019-01-25T00:54:40.290Z,73.94
2019-01-25T00:57:12.846Z,74.08
2019-01-25T00:59:45.559Z,74.08
2019-01-25T01:02:18.278Z,73.62
2019-01-25T01:04:50.990Z,74.26
2019-01-25T01:07:23.721Z,73.65
2019-01-25T01:09:56.483Z,73.76
2019-01-25T01:12:29.243Z,74.33
2019-01-25T01:15:02.126Z,74.37
2019-01-25T01:17:34.877Z,74.61
2019-01-25T01:20:11.836Z,74.76
2019-01-25T01:22:44.493Z,74.17
2019-01-25T01:25:17.293Z,74.40
2019-01-25T01:27:49.891Z,73.61
2019-01-25T01:30:25.643Z,73.77
2019-01-25T01:32:58.408Z,73.34
2019-01-25T01:35:31.575Z,74.30
2019-01-25T01:38:04.792Z,72.86
2019-01-25T01:40:37.588Z,72.42
2019-01-25T01:43:10.367Z,73.99
2019-01-25T01:45:43.073Z,72.82
2019-01-25T01:48:15.793Z,72.29
2019-01-25T01:50:48.529Z,72.84
2019-01-25T01:53:21.241Z,73.26
2019-01-25T01:55:54.071Z,71.76
2019-01-25T01:58:26.740Z,71.95
2019-01-25T02:00:59.755Z,73.09
2019-01-25T02:03:32.674Z,72.25
2019-01-25T02:06:06.206Z,73.09
2019-01-25T02:08:38.998Z,71.64
2019-01-25T02:11:11.780Z,72.40
2019-01-25T02:13:44.502Z,71.84
2019-01-25T02:16:17.194Z,73.06
2019-01-25T02:18:49.939Z,72.07
2019-01-25T02:21:22.794Z,72.60
2019-01-25T02:23:55.558Z,72.30
2019-01-25T02:26:28.236Z,72.69
2019-01-25T02:29:00.958Z,73.80
2019-01-25T02:31:33.677Z,71.49
2019-01-25T02:34:06.394Z,72.53
2019-01-25T02:36:39.187Z,72.15
2019-01-25T02:39:11.955Z,72.69
2019-01-25T02:41:44.642Z,72.69
2019-01-25T02:44:17.632Z,72.37
2019-01-25T02:46:50.391Z,72.46
2019-01-25T02:49:23.091Z,72.37
2019-01-25T02:51:55.992Z,72.34
2019-01-25T02:54:29.137Z,73.01
2019-01-25T02:57:02.085Z,72.71
2019-01-25T02:59:34.921Z,73.37
2019-01-25T03:02:08.603Z,74.02
2019-01-25T03:04:41.316Z,73.77
2019-01-25T03:07:14.096Z,74.51
2019-01-25T03:09:46.763Z,75.50
2019-01-25T03:12:19.488Z,76.13
2019-01-25T03:14:52.161Z,76.20
2019-01-25T03:17:24.982Z,76.86
2019-01-25T03:19:57.768Z,77.52
2019-01-25T03:22:30.495Z,78.11
2019-01-25T03:25:03.291Z,78.77
2019-01-25T03:27:36.009Z,79.71
2019-01-25T03:30:11.565Z,80.54
2019-01-25T03:32:44.304Z,80.88
2019-01-25T03:35:18.891Z,81.20
2019-01-25T03:37:52.715Z,81.58
2019-01-25T03:40:29.735Z,81.86
2019-01-25T03:43:02.751Z,81.72
2019-01-25T03:45:35.448Z,81.83
2019-01-25T03:48:08.666Z,81.67
2019-01-25T03:50:41.576Z,81.86
2019-01-25T03:53:14.285Z,81.67
2019-01-25T03:55:46.994Z,81.71
2019-01-25T03:58:19.797Z,81.90
2019-01-25T04:00:52.554Z,81.88
2019-01-25T04:03:25.231Z,82.29
2019-01-25T04:05:58.109Z,82.29
2019-01-25T04:08:30.931Z,82.32
2019-01-25T04:11:04.217Z,82.54
2019-01-25T04:13:37.159Z,82.92
2019-01-25T04:16:09.921Z,83.02
2019-01-25T04:18:42.644Z,83.17
2019-01-25T04:21:15.392Z,83.55
2019-01-25T04:23:48.132Z,83.83
2019-01-25T04:26:20.915Z,83.65
2019-01-25T04:28:53.644Z,83.92
2019-01-25T04:31:26.796Z,83.81
2019-01-25T04:33:59.593Z,83.47
2019-01-25T04:36:32.240Z,83.63
2019-01-25T04:39:08.105Z,83.49
2019-01-25T04:41:40.831Z,83.37
2019-01-25T04:44:13.775Z,83.29
2019-01-25T04:46:46.546Z,82.64
2019-01-25T04:49:19.224Z,82.19
2019-01-25T04:51:52.040Z,81.74
2019-01-25T04:54:24.782Z,82.09
2019-01-25T04:56:57.513Z,82.30
2019-01-25T04:59:32.290Z,82.15
2019-01-25T05:02:05.448Z,82.35
2019-01-25T05:04:38.465Z,82.63
2019-01-25T05:07:11.171Z,83.06
2019-01-25T05:09:43.889Z,83.44
2019-01-25T05:12:16.674Z,83.52
2019-01-25T05:14:49.439Z,83.80
2019-01-25T05:17:22.444Z,83.84
2019-01-25T05:19:55.237Z,84.24
2019-01-25T05:22:28.048Z,84.65
2019-01-25T05:25:00.696Z,84.93
2019-01-25T05:27:33.613Z,85.37
2019-01-25T05:30:09.573Z,85.30
2019-01-25T05:32:42.482Z,85.00
2019-01-25T05:35:15.279Z,85.15
2019-01-25T05:37:48.006Z,85.43
2019-01-25T05:40:26.146Z,85.69
2019-01-25T05:42:58.823Z,85.85
2019-01-25T05:45:31.513Z,85.94
2019-01-25T05:48:04.261Z,85.71
2019-01-25T05:50:37.073Z,85.30
2019-01-25T05:53:09.794Z,85.05
2019-01-25T05:55:42.544Z,85.25
2019-01-25T05:58:15.331Z,85.50
2019-01-25T06:00:48.094Z,85.53
2019-01-25T06:03:20.975Z,85.70
2019-01-25T06:06:01.880Z,85.43
2019-01-25T06:08:43.767Z,85.31
2019-01-25T06:11:14.022Z,85.35
2019-01-25T06:13:47.566Z,85.14
2019-01-25T06:16:20.346Z,85.34
2019-01-25T06:18:53.054Z,85.24
2019-01-25T06:21:25.839Z,85.34
2019-01-25T06:23:58.589Z,85.17
2019-01-25T06:26:31.692Z,85.17
2019-01-25T06:29:05.263Z,85.24
2019-01-25T06:31:38.071Z,85.38
2019-01-25T06:34:13.585Z,85.23
2019-01-25T06:36:46.498Z,85.07
2019-01-25T06:39:21.845Z,85.00
2019-01-25T06:41:54.615Z,84.40
2019-01-25T06:44:27.489Z,84.47
2019-01-25T06:47:00.233Z,84.30
2019-01-25T06:49:33.151Z,84.22
2019-01-25T06:52:06.056Z,83.96
2019-01-25T06:54:38.811Z,83.47
2019-01-25T06:57:29.965Z,82.84
2019-01-25T07:00:02.829Z,81.93
2019-01-25T07:02:38.497Z,81.39
2019-01-25T07:05:11.643Z,81.44
2019-01-25T07:07:45.826Z,80.62
2019-01-25T07:10:20.249Z,81.36
2019-01-25T07:12:53.021Z,81.65
2019-01-25T07:15:26.738Z,81.95
2019-01-25T07:17:59.475Z,81.74
2019-01-25T07:20:33.072Z,81.45
2019-01-25T07:23:06.015Z,81.77
2019-01-25T07:25:38.925Z,80.97
2019-01-25T07:28:11.878Z,81.08
2019-01-25T07:30:44.651Z,80.67
2019-01-25T07:33:17.459Z,80.02
2019-01-25T07:35:50.189Z,79.53
2019-01-25T07:38:23.050Z,79.47
2019-01-25T07:40:55.782Z,79.08
2019-01-25T07:43:28.583Z,79.34
2019-01-25T07:46:01.348Z,78.63
2019-01-25T07:48:34.029Z,79.41
2019-01-25T07:51:06.732Z,78.46
2019-01-25T07:53:39.359Z,78.23
2019-01-25T07:56:12.244Z,78.24
2019-01-25T07:58:45.034Z,77.24
2019-01-25T08:01:17.751Z,76.34
2019-01-25T08:03:50.475Z,75.74
2019-01-25T08:06:23.167Z,75.50
2019-01-25T08:08:56.132Z,75.80
2019-01-25T08:11:28.926Z,76.27
2019-01-25T08:14:02.445Z,76.54
2019-01-25T08:16:35.166Z,76.86
2019-01-25T08:19:07.997Z,77.29
2019-01-25T08:21:40.729Z,75.51
2019-01-25T08:24:13.429Z,70.78
2019-01-25T08:26:46.042Z,64.48
2019-01-25T08:29:18.857Z,62.79
2019-01-25T08:31:51.521Z,63.27
2019-01-25T08:34:24.209Z,66.81
2019-01-25T08:36:57.020Z,69.60
2019-01-25T08:39:29.659Z,66.11
2019-01-25T08:42:02.364Z,59.88
2019-01-25T08:44:35.074Z,56.62
2019-01-25T08:47:07.824Z,57.69
2019-01-25T08:49:40.582Z,55.48
2019-01-25T08:52:13.437Z,57.68
2019-01-25T08:54:46.157Z,63.97
2019-01-25T08:57:18.797Z,67.50
2019-01-25T08:59:51.467Z,67.12
2019-01-25T09:02:24.233Z,67.27
2019-01-25T09:04:57.278Z,66.49
2019-01-25T09:07:30.346Z,67.10
2019-01-25T09:10:03.103Z,63.43
2019-01-25T09:12:36.145Z,57.47
2019-01-25T09:15:15.674Z,54.43
2019-01-25T09:17:48.368Z,53.30
2019-01-25T09:20:22.010Z,48.27
2019-01-25T09:22:54.610Z,49.14
2019-01-25T09:25:27.320Z,47.45
2019-01-25T09:27:59.954Z,50.65
2019-01-25T09:30:32.560Z,49.75
2019-01-25T09:33:05.420Z,49.31
2019-01-25T09:35:38.013Z,47.68
2019-01-25T09:38:10.689Z,48.79
2019-01-25T09:40:43.416Z,47.90
2019-01-25T09:43:16.175Z,47.49
2019-01-25T09:45:48.806Z,49.17
2019-01-25T09:48:21.495Z,48.93
2019-01-25T09:50:54.158Z,51.21
2019-01-25T09:53:26.741Z,48.71
2019-01-25T09:55:59.425Z,48.15
2019-01-25T09:58:31.963Z,51.35
2019-01-25T10:01:09.520Z,55.86
2019-01-25T10:03:44.648Z,57.21
2019-01-25T10:06:17.376Z,58.39
2019-01-25T10:08:50.008Z,59.19
2019-01-25T10:11:22.817Z,61.35
2019-01-25T10:13:55.425Z,62.00
2019-01-25T10:16:28.002Z,62.99
2019-01-25T10:19:00.666Z,63.16
2019-01-25T10:21:33.291Z,59.81
2019-01-25T10:24:06.264Z,60.90
2019-01-25T10:26:38.932Z,60.63
2019-01-25T10:29:11.586Z,61.07
2019-01-25T10:31:44.258Z,61.16
2019-01-25T10:34:16.917Z,60.40
2019-01-25T10:36:50.001Z,58.39
2019-01-25T10:39:22.675Z,56.63
2019-01-25T10:41:55.342Z,52.69
2019-01-25T10:44:28.111Z,51.92
2019-01-25T10:47:00.802Z,50.48
2019-01-25T10:49:33.348Z,49.74
2019-01-25T10:52:06.518Z,49.87
2019-01-25T10:54:39.086Z,52.24
2019-01-25T10:57:11.699Z,51.65
2019-01-25T10:59:44.239Z,51.05
2019-01-25T11:02:16.976Z,51.10
2019-01-25T11:04:49.697Z,52.07
2019-01-25T11:07:22.396Z,53.53
2019-01-25T11:09:55.078Z,55.57
2019-01-25T11:12:27.722Z,56.47
2019-01-25T11:15:01.445Z,58.41
2019-01-25T11:17:36.536Z,55.87
2019-01-25T11:20:15.957Z,52.60
2019-01-25T11:22:49.042Z,47.88
2019-01-25T11:25:34.813Z,44.31
2019-01-25T11:28:07.790Z,43.87
2019-01-25T11:30:40.576Z,41.93
2019-01-25T11:33:13.188Z,42.39
2019-01-25T11:35:45.797Z,41.78
2019-01-25T11:38:18.453Z,37.01
2019-01-25T11:40:51.097Z,38.40
2019-01-25T11:43:23.769Z,40.23
2019-01-25T11:45:56.481Z,41.53
2019-01-25T11:48:29.083Z,41.26
2019-01-25T11:51:01.727Z,44.45
2019-01-25T11:53:34.403Z,46.11
2019-01-25T11:56:07.109Z,43.98
2019-01-25T11:58:39.756Z,44.84
2019-01-25T12:01:12.346Z,42.53
2019-01-25T12:03:45.176Z,38.09
2019-01-25T12:06:17.855Z,36.50
2019-01-25T12:08:50.527Z,38.35
2019-01-25T12:11:23.164Z,38.53
2019-01-25T12:13:55.760Z,39.85
2019-01-25T12:16:28.397Z,38.51
2019-01-25T12:19:00.950Z,36.20
2019-01-25T12:21:33.541Z,35.87
2019-01-25T12:24:06.960Z,39.06
2019-01-25T12:26:39.526Z,37.36
2019-01-25T12:29:21.846Z,38.81
2019-01-25T12:31:54.470Z,41.74
2019-01-25T12:34:27.118Z,40.88
2019-01-25T12:36:59.682Z,41.52
2019-01-25T12:39:32.429Z,39.77
2019-01-25T12:42:05.249Z,38.82
2019-01-25T12:44:37.787Z,38.35
2019-01-25T12:47:10.429Z,38.12
2019-01-25T12:49:43.088Z,37.83
2019-01-25T12:52:15.657Z,34.59
2019-01-25T12:54:48.466Z,35.89
2019-01-25T12:57:21.241Z,36.03
2019-01-25T12:59:53.974Z,36.10
2019-01-25T13:02:26.636Z,36.09
2019-01-25T13:04:59.441Z,35.54
2019-01-25T13:07:32.155Z,37.03
2019-01-25T13:10:06.110Z,35.70
2019-01-25T13:12:38.820Z,33.13
2019-01-25T13:15:13.021Z,34.70
2019-01-25T13:17:45.353Z,35.30
2019-01-25T13:20:24.501Z,37.10
2019-01-25T13:22:57.419Z,35.87
2019-01-25T13:25:30.192Z,34.45
2019-01-25T13:28:02.982Z,36.47
2019-01-25T13:30:35.920Z,35.33
2019-01-25T13:33:08.824Z,35.47
2019-01-25T13:35:41.608Z,34.93
2019-01-25T13:38:17.923Z,37.68
2019-01-25T13:40:50.666Z,35.67
2019-01-25T13:43:23.684Z,35.62
2019-01-25T13:45:56.459Z,36.06
2019-01-25T13:48:29.046Z,37.93
2019-01-25T13:51:01.653Z,38.13
2019-01-25T13:53:34.286Z,39.04
2019-01-25T13:56:07.192Z,38.74
2019-01-25T13:58:39.872Z,42.43
2019-01-25T14:01:12.485Z,43.71
2019-01-25T14:03:45.072Z,46.88
2019-01-25T14:06:17.721Z,44.93
2019-01-25T14:08:50.386Z,44.74
2019-01-25T14:11:22.933Z,46.81
2019-01-25T14:13:55.472Z,49.12
2019-01-25T14:16:28.048Z,52.47
2019-01-25T14:19:00.670Z,53.03
2019-01-25T14:21:33.353Z,56.67
2019-01-25T14:24:06.296Z,57.85
2019-01-25T14:26:39.038Z,55.48
2019-01-25T14:29:11.611Z,55.28
2019-01-25T14:31:44.753Z,56.37
2019-01-25T14:34:18.019Z,55.89
2019-01-25T14:36:50.601Z,54.15
2019-01-25T14:39:23.157Z,54.47
2019-01-25T14:41:55.937Z,54.41
2019-01-25T14:44:28.987Z,54.80
2019-01-25T14:47:01.579Z,53.75
2019-01-25T14:49:34.211Z,54.07
2019-01-25T14:52:06.969Z,54.60
2019-01-25T14:54:39.587Z,54.43
2019-01-25T14:57:12.839Z,55.33
2019-01-25T14:59:45.682Z,55.60
2019-01-25T15:02:18.344Z,55.16
2019-01-25T15:04:51.039Z,55.17
2019-01-25T15:07:23.596Z,54.51
2019-01-25T15:09:56.246Z,55.03
2019-01-25T15:12:28.878Z,54.99
2019-01-25T15:15:01.482Z,54.71
2019-01-25T15:17:34.075Z,54.47
2019-01-25T15:20:11.346Z,54.62
2019-01-25T15:22:43.937Z,54.18
2019-01-25T15:25:17.255Z,54.83
2019-01-25T15:27:49.920Z,54.44
2019-01-25T15:30:30.022Z,54.56
2019-01-25T15:33:02.693Z,54.44
2019-01-25T15:35:38.402Z,55.39
2019-01-25T15:38:11.113Z,56.51
2019-01-25T15:40:43.891Z,57.45
2019-01-25T15:43:16.533Z,59.05
2019-01-25T15:45:49.129Z,59.87
2019-01-25T15:48:21.717Z,60.67
2019-01-25T15:50:54.346Z,59.98
2019-01-25T15:53:26.958Z,59.29
2019-01-25T15:55:59.624Z,59.67
2019-01-25T15:58:32.388Z,60.48
2019-01-25T16:01:04.996Z,61.01
2019-01-25T16:03:37.747Z,60.88
2019-01-25T16:06:10.597Z,63.78
2019-01-25T16:08:43.359Z,64.47
2019-01-25T16:11:16.084Z,65.83
2019-01-25T16:13:49.839Z,66.37
2019-01-25T16:16:22.911Z,66.68
2019-01-25T16:18:55.482Z,67.42
2019-01-25T16:21:28.162Z,68.75
2019-01-25T16:24:00.946Z,69.46
2019-01-25T16:26:33.587Z,69.79
2019-01-25T16:29:06.247Z,70.37
2019-01-25T16:31:38.882Z,71.15
2019-01-25T16:34:11.680Z,71.54
2019-01-25T16:36:47.431Z,72.85
2019-01-25T16:39:20.057Z,73.76
2019-01-25T16:41:52.869Z,73.89
2019-01-25T16:44:25.960Z,72.55
2019-01-25T16:46:58.863Z,71.84
2019-01-25T16:49:31.535Z,72.12
2019-01-25T16:52:04.297Z,72.37
2019-01-25T16:54:36.959Z,72.51
2019-01-25T16:57:09.605Z,73.12
2019-01-25T16:59:42.273Z,73.83
2019-01-25T17:02:15.026Z,74.39
2019-01-25T17:04:47.891Z,75.00
2019-01-25T17:07:20.609Z,76.03
2019-01-25T17:09:53.350Z,76.43
2019-01-25T17:12:26.061Z,76.87
2019-01-25T17:14:58.720Z,76.86
2019-01-25T17:17:31.459Z,76.94
2019-01-25T17:20:05.406Z,77.04
2019-01-25T17:22:38.119Z,76.96
2019-01-25T17:25:11.729Z,76.76
2019-01-25T17:27:44.842Z,76.89
2019-01-25T17:30:24.043Z,76.81
2019-01-25T17:32:58.394Z,76.25
2019-01-25T17:35:32.071Z,75.87
2019-01-25T17:38:06.487Z,76.03
2019-01-25T17:40:48.667Z,77.21
2019-01-25T17:43:21.360Z,76.82
2019-01-25T17:45:54.007Z,76.25
2019-01-25T17:48:26.729Z,76.35
2019-01-25T17:50:59.407Z,76.43
2019-01-25T17:53:32.044Z,76.35
2019-01-25T17:56:04.926Z,76.40
2019-01-25T17:58:37.675Z,76.96
2019-01-25T18:01:10.328Z,78.19
2019-01-25T18:03:43.142Z,78.64
2019-01-25T18:06:15.958Z,78.52
2019-01-25T18:08:48.767Z,79.02
2019-01-25T18:11:21.443Z,79.91
2019-01-25T18:13:54.495Z,80.56
2019-01-25T18:16:27.872Z,80.82
2019-01-25T18:19:03.647Z,80.61
2019-01-25T18:21:36.827Z,80.20
2019-01-25T18:24:09.789Z,80.63
2019-01-25T18:26:42.644Z,80.25
2019-01-25T18:29:33.908Z,79.69
2019-01-25T18:32:07.309Z,79.11
2019-01-25T18:34:39.965Z,79.45
2019-01-25T18:37:12.701Z,80.22
2019-01-25T18:39:45.469Z,80.06
2019-01-25T18:42:18.365Z,79.52
2019-01-25T18:44:56.688Z,79.06
2019-01-25T18:47:25.569Z,79.32
2019-01-25T18:49:58.290Z,78.87
2019-01-25T18:52:31.135Z,78.77
2019-01-25T18:55:05.379Z,78.65
2019-01-25T18:57:37.376Z,78.04
2019-01-25T19:00:15.194Z,77.60
2019-01-25T19:02:47.955Z,77.60
2019-01-25T19:05:20.667Z,78.74
2019-01-25T19:07:53.489Z,78.70
2019-01-25T19:10:27.253Z,78.25
2019-01-25T19:12:59.932Z,77.63
2019-01-25T19:15:32.922Z,76.55
2019-01-25T19:18:05.651Z,77.22
2019-01-25T19:20:38.261Z,77.44
2019-01-25T19:23:11.097Z,77.34
2019-01-25T19:25:43.794Z,77.04
2019-01-25T19:28:16.460Z,77.46
2019-01-25T19:30:50.080Z,77.03
2019-01-25T19:33:22.852Z,76.07
2019-01-25T19:35:58.884Z,75.47
2019-01-25T19:38:31.843Z,76.31
2019-01-25T19:41:04.570Z,78.31
2019-01-25T19:43:37.315Z,76.69
2019-01-25T19:46:10.150Z,75.28
2019-01-25T19:48:42.891Z,75.48
2019-01-25T19:51:15.655Z,75.64
2019-01-25T19:53:48.375Z,75.29
2019-01-25T19:56:21.099Z,74.98
2019-01-25T19:58:53.948Z,75.63
2019-01-25T20:01:26.663Z,75.71
2019-01-25T20:03:59.566Z,76.05
2019-01-25T20:06:32.362Z,75.18
2019-01-25T20:09:08.749Z,75.06
2019-01-25T20:11:41.547Z,75.00
2019-01-25T20:14:14.423Z,75.03
2019-01-25T20:16:47.539Z,74.93
2019-01-25T20:19:20.293Z,75.33
2019-01-25T20:21:53.013Z,76.50
2019-01-25T20:24:25.662Z,76.56
2019-01-25T20:26:58.413Z,76.63
2019-01-25T20:29:31.054Z,76.07
2019-01-25T20:32:03.996Z,76.02
2019-01-25T20:34:36.880Z,76.71
2019-01-25T20:37:09.599Z,76.14
2019-01-25T20:39:42.387Z,76.27
2019-01-25T20:42:15.274Z,76.17
2019-01-25T20:44:48.022Z,76.27
2019-01-25T20:47:20.642Z,75.76
2019-01-25T20:49:53.350Z,76.14
2019-01-25T20:52:26.084Z,76.06
2019-01-25T20:55:01.394Z,76.46
2019-01-25T20:57:34.196Z,76.54
2019-01-25T21:00:13.058Z,76.76
2019-01-25T21:02:45.811Z,75.74
2019-01-25T21:05:18.610Z,75.67
2019-01-25T21:07:51.343Z,74.52
2019-01-25T21:10:24.705Z,74.57
2019-01-25T21:12:57.338Z,74.22
2019-01-25T21:15:35.068Z,73.64
2019-01-25T21:18:05.407Z,73.08
2019-01-25T21:20:42.125Z,71.54
2019-01-25T21:23:14.795Z,72.59
2019-01-25T21:25:47.372Z,72.81
2019-01-25T21:28:20.038Z,71.90
2019-01-25T21:30:52.671Z,73.62
2019-01-25T21:33:26.701Z,73.28
2019-01-25T21:35:59.613Z,72.66
2019-01-25T21:38:32.296Z,73.74
2019-01-25T21:41:04.947Z,74.30
2019-01-25T21:43:37.768Z,75.50
2019-01-25T21:46:10.580Z,75.74
2019-01-25T21:48:43.196Z,75.63
2019-01-25T21:51:15.900Z,75.60
2019-01-25T21:53:48.530Z,76.76
2019-01-25T21:56:22.162Z,75.04
2019-01-25T21:58:54.919Z,74.30
2019-01-25T22:01:27.637Z,73.15
2019-01-25T22:04:00.313Z,72.20
2019-01-25T22:06:33.157Z,72.32
2019-01-25T22:09:09.131Z,73.47
2019-01-25T22:11:41.839Z,74.15
2019-01-25T22:14:14.546Z,72.55
2019-01-25T22:16:47.227Z,71.62
2019-01-25T22:19:19.964Z,71.52
2019-01-25T22:21:52.679Z,71.23
2019-01-25T22:24:25.357Z,73.27
2019-01-25T22:26:57.997Z,74.30
2019-01-25T22:29:30.667Z,74.96
2019-01-25T22:32:03.373Z,74.77
2019-01-25T22:34:35.943Z,74.84
2019-01-25T22:37:08.670Z,74.03
2019-01-25T22:39:41.358Z,73.81
2019-01-25T22:42:14.087Z,73.54
2019-01-25T22:44:46.792Z,73.71
2019-01-25T22:47:20.385Z,75.92
2019-01-25T22:49:53.265Z,75.35
2019-01-25T22:52:25.863Z,73.97
2019-01-25T22:54:58.439Z,73.31
2019-01-25T22:57:31.092Z,73.08
2019-01-25T23:00:05.056Z,73.67
2019-01-25T23:02:38.165Z,72.62
2019-01-25T23:05:45.247Z,73.07
2019-01-25T23:08:17.912Z,73.67
2019-01-25T23:10:50.490Z,72.74
2019-01-25T23:13:24.334Z,72.61
2019-01-25T23:15:57.020Z,72.55
2019-01-25T23:18:29.657Z,71.71
2019-01-25T23:21:01.831Z,72.66
2019-01-25T23:23:34.491Z,73.87
2019-01-25T23:26:07.171Z,74.22
2019-01-25T23:28:39.800Z,74.54
2019-01-25T23:31:12.433Z,74.80
2019-01-25T23:33:45.036Z,75.38
2019-01-25T23:36:17.843Z,74.80
2019-01-25T23:38:50.421Z,74.52
2019-01-25T23:41:23.220Z,76.36
2019-01-25T23:43:55.890Z,75.54
2019-01-25T23:46:28.535Z,74.98
2019-01-25T23:49:01.206Z,74.46
2019-01-25T23:51:33.846Z,73.85
2019-01-25T23:54:07.414Z,73.22
2019-01-25T23:56:40.210Z,72.78
2019-01-25T23:59:12.804Z,73.10
